Time;durP1;ratioP1;P1;durP2;ratioP2;P2;SDS_P1;SDS_P2;PMS_P1;PMS_P2;Temp;Humidity;BMP_temperature;BMP_pressure;BME280_temperature;BME280_humidity;BME280_pressure;Samples;Min_cycle;Max_cycle;Signal;HPM_P1;HPM_P2
2022/01/25 00:31:10;;;;;;;20.10;10.00;;;;;;;-2.73;54.55;101734.69;117304;1183;23502;-50
2022/01/25 00:33:54;;;;;;;21.70;10.40;;;;;;;-2.76;54.56;101732.98;117273;1182;21858;-50
2022/01/25 00:36:24;;;;;;;17.60;9.60;;;;;;;-2.78;54.60;101727.35;117113;1186;21948;-76
2022/01/25 00:38:53;;;;;;;20.90;9.90;;;;;;;-2.78;54.50;101727.88;117281;1185;23558;-50
2022/01/25 00:41:21;;;;;;;19.00;10.30;;;;;;;-2.78;54.65;101725.27;117302;1186;21868;-50
2022/01/25 00:43:50;;;;;;;18.20;9.50;;;;;;;-2.81;54.61;101723.69;117271;1185;22964;-78
2022/01/25 00:46:21;;;;;;;20.40;10.20;;;;;;;-2.82;54.51;101725.38;116996;1186;22881;-77
2022/01/25 00:48:54;;;;;;;20.10;10.50;;;;;;;-2.85;54.51;101724.20;117234;1184;22656;-76
2022/01/25 00:54:10;;;;;;;20.60;9.50;;;;;;;-2.82;54.60;101726.41;117103;1186;21855;-76
2022/01/25 00:56:40;;;;;;;17.20;9.50;;;;;;;-2.82;54.60;101719.16;117256;1185;21853;-49
2022/01/25 00:59:10;;;;;;;20.30;9.90;;;;;;;-2.84;54.61;101718.89;116998;1186;22946;-76
2022/01/25 01:01:40;;;;;;;18.10;9.80;;;;;;;-2.85;54.68;101712.35;117282;1185;21896;-48
2022/01/25 01:04:13;;;;;;;20.00;10.50;;;;;;;-2.85;54.58;101714.20;117278;1182;23528;-48
2022/01/25 01:06:44;;;;;;;17.80;10.00;;;;;;;-2.84;54.59;101711.80;117322;1177;23451;-48
2022/01/25 01:09:12;;;;;;;;;;;;;;;-2.85;54.64;101713.54;117268;1186;21835;-76
2022/01/25 01:11:49;;;;;;;20.80;9.60;;;;;;;-2.82;54.56;101711.12;117320;1184;23650;-49
2022/01/25 01:28:48;;;;;;;18.60;9.80;;;;;;;-2.85;54.64;101709.91;117276;1185;23381;-48
2022/01/25 01:30:59;;;;;;;16.70;9.20;;;;;;;-2.87;54.55;101710.49;117297;1181;22841;-75
2022/01/25 01:33:53;;;;;;;18.30;9.90;;;;;;;-2.87;54.61;101707.02;117271;1182;22831;-73
2022/01/25 01:44:26;;;;;;;18.30;10.10;;;;;;;-2.85;54.47;101696.87;117287;1184;21861;-76
2022/01/25 01:49:49;;;;;;;19.50;10.20;;;;;;;-2.84;54.31;101689.71;117074;1182;21881;-48
2022/01/25 01:52:18;;;;;;;16.60;9.80;;;;;;;-2.86;54.42;101687.20;117266;1182;22926;-77
2022/01/25 01:54:46;;;;;;;18.60;10.10;;;;;;;-2.86;54.46;101686.27;117249;1181;22007;-49
2022/01/25 01:57:15;;;;;;;14.40;8.50;;;;;;;-2.87;54.52;101682.98;117517;1185;23466;-59
2022/01/25 01:59:43;;;;;;;16.70;10.00;;;;;;;-2.87;54.46;101682.64;117311;1183;22799;-48
2022/01/25 02:02:11;;;;;;;19.60;10.20;;;;;;;-2.88;54.42;101676.57;117316;1178;21898;-76
2022/01/25 02:04:41;;;;;;;16.10;8.90;;;;;;;-2.89;54.49;101671.17;117117;1182;23491;-49
2022/01/25 02:07:09;;;;;;;17.50;10.30;;;;;;;-2.88;54.44;101666.94;117194;1178;21857;-77
2022/01/25 02:09:37;;;;;;;16.70;8.80;;;;;;;-2.90;54.43;101668.20;117072;1186;21867;-49
2022/01/25 02:12:06;;;;;;;17.60;9.20;;;;;;;-2.92;54.51;101669.95;117310;1181;21870;-49
2022/01/25 02:14:37;;;;;;;19.50;8.80;;;;;;;-2.96;54.45;101666.95;117297;1185;23825;-76
2022/01/25 02:17:36;;;;;;;19.10;9.20;;;;;;;-2.96;54.36;101660.20;117170;1184;24133;-78
2022/01/25 02:23:21;;;;;;;15.50;7.80;;;;;;;-3.02;54.42;101665.75;117286;1182;23478;-77
2022/01/25 02:25:55;;;;;;;14.30;7.30;;;;;;;-3.05;54.42;101662.06;117264;1181;22585;-75
2022/01/25 02:28:36;;;;;;;14.80;8.80;;;;;;;-3.06;54.54;101662.20;117316;1182;22672;-77
2022/01/25 02:31:05;;;;;;;17.70;8.90;;;;;;;-3.05;54.55;101660.16;117284;1182;22618;-75
2022/01/25 02:33:34;;;;;;;15.40;9.10;;;;;;;-3.05;54.45;101657.94;117233;1185;22645;-75
2022/01/25 02:36:09;;;;;;;16.00;9.30;;;;;;;-3.04;54.66;101655.11;117294;1176;23481;-76
2022/01/25 02:38:37;;;;;;;16.20;9.40;;;;;;;-3.03;54.52;101653.42;117135;1187;21859;-48
2022/01/25 02:41:06;;;;;;;17.20;9.50;;;;;;;-3.04;54.50;101656.11;117074;1184;23417;-74
2022/01/25 02:43:35;;;;;;;16.60;9.20;;;;;;;-3.04;54.55;101653.05;117137;1185;23019;-65
2022/01/25 02:48:56;;;;;;;14.90;7.80;;;;;;;-3.05;54.37;101658.15;117140;1185;23577;-75
2022/01/25 02:51:45;;;;;;;16.00;7.90;;;;;;;-3.05;54.53;101658.67;117276;1185;22866;-75
2022/01/25 02:54:15;;;;;;;17.00;9.00;;;;;;;-3.05;54.52;101656.94;117320;1181;23580;-48
2022/01/25 02:56:44;;;;;;;18.90;9.70;;;;;;;-3.07;54.50;101658.05;117123;1185;21861;-76
2022/01/25 02:59:14;;;;;;;13.80;8.50;;;;;;;-3.08;54.52;101661.89;117270;1186;21967;-77
2022/01/25 03:01:44;;;;;;;18.00;8.70;;;;;;;-3.06;54.53;101663.34;117273;1186;21852;-76
2022/01/25 03:04:12;;;;;;;14.50;8.10;;;;;;;-3.07;54.59;101662.98;117318;1187;22620;-49
2022/01/25 03:06:42;;;;;;;14.50;7.80;;;;;;;-3.07;54.67;101662.81;117323;1186;21887;-49
2022/01/25 03:09:11;;;;;;;14.80;8.10;;;;;;;-3.10;54.51;101661.97;117259;1186;23625;-76
2022/01/25 03:11:39;;;;;;;14.80;8.40;;;;;;;-3.10;54.47;101656.27;117007;1183;22321;-49
2022/01/25 03:14:10;;;;;;;14.40;8.10;;;;;;;-3.10;54.59;101654.38;117279;1186;24281;-75
2022/01/25 03:16:47;;;;;;;15.60;9.00;;;;;;;-3.12;54.58;101650.51;117073;1186;21857;-49
2022/01/25 03:21:59;;;;;;;17.50;8.80;;;;;;;-3.10;54.67;101648.88;117342;1185;21865;-73
2022/01/25 03:24:27;;;;;;;16.20;7.90;;;;;;;-3.08;54.63;101651.92;117324;1185;21857;-48
2022/01/25 03:26:55;;;;;;;12.60;7.10;;;;;;;-3.06;54.62;101650.46;117238;1184;23453;-49
2022/01/25 03:29:24;;;;;;;13.90;8.00;;;;;;;-3.07;54.51;101647.66;117242;1185;23551;-76
2022/01/25 03:31:52;;;;;;;16.00;8.10;;;;;;;-3.09;54.55;101648.76;117264;1185;22928;-75
2022/01/25 03:34:20;;;;;;;17.10;8.60;;;;;;;-3.10;54.58;101647.68;117264;1186;23535;-49
2022/01/25 03:36:49;;;;;;;16.20;9.00;;;;;;;-3.11;54.47;101645.41;117240;1184;21862;-49
2022/01/25 03:39:17;;;;;;;14.00;7.40;;;;;;;-3.13;54.67;101644.41;117315;1184;24158;-75
2022/01/25 03:41:45;;;;;;;13.80;8.00;;;;;;;-3.15;54.57;101646.21;117136;1186;21896;-74
2022/01/25 03:44:16;;;;;;;17.90;8.70;;;;;;;-3.13;54.62;101647.51;117286;1185;22654;-49
2022/01/25 03:52:03;;;;;;;16.30;7.90;;;;;;;-3.12;54.59;101651.02;117308;1185;22169;-75
2022/01/25 03:54:32;;;;;;;14.30;7.70;;;;;;;-3.10;54.61;101651.81;117072;1185;21858;-74
2022/01/25 03:57:01;;;;;;;18.10;8.60;;;;;;;-3.11;54.51;101648.84;117134;1184;22176;-49
2022/01/25 03:59:29;;;;;;;14.40;8.10;;;;;;;-3.11;54.60;101644.33;117300;1183;23598;-49
2022/01/25 04:01:58;;;;;;;13.90;7.70;;;;;;;-3.12;54.48;101644.98;117311;1185;21845;-75
2022/01/25 04:04:29;;;;;;;13.80;7.90;;;;;;;-3.14;54.57;101644.58;117254;1185;23456;-73
2022/01/25 04:06:57;;;;;;;15.20;8.50;;;;;;;-3.14;54.69;101648.83;117224;1186;23507;-75
2022/01/25 04:09:28;;;;;;;11.20;6.90;;;;;;;-3.14;54.56;101651.42;117330;1186;23451;-49
2022/01/25 04:11:56;;;;;;;14.30;7.00;;;;;;;-3.15;54.56;101649.92;117319;1182;23512;-74
2022/01/25 04:14:44;;;;;;;13.00;6.80;;;;;;;-3.16;54.64;101650.57;117063;1188;21851;-74
2022/01/25 04:17:18;;;;;;;16.60;8.20;;;;;;;-3.17;54.49;101647.08;116980;1187;21853;-75
2022/01/25 04:20:07;;;;;;;12.50;7.20;;;;;;;-3.18;54.61;101651.30;117246;1186;21979;-52
2022/01/25 04:25:21;;;;;;;12.90;7.00;;;;;;;-3.20;54.50;101651.19;117242;1186;23451;-74
2022/01/25 04:27:49;;;;;;;14.90;7.60;;;;;;;-3.22;54.40;101652.41;117268;1184;23638;-74
2022/01/25 04:30:18;;;;;;;28.90;11.80;;;;;;;-3.24;54.55;101647.48;117326;1185;21864;-49
2022/01/25 04:32:52;;;;;;;38.40;16.20;;;;;;;-3.25;54.34;101650.35;117282;1183;22916;-73
2022/01/25 04:49:10;;;;;;;14.80;9.20;;;;;;;-3.38;54.45;101648.97;117218;1185;23453;-75
2022/01/25 04:57:34;;;;;;;21.90;10.90;;;;;;;-3.45;54.48;101652.20;117135;1185;21874;-48
2022/01/25 05:00:20;;;;;;;15.50;8.60;;;;;;;-3.44;54.54;101653.98;117225;1183;24207;-76
2022/01/25 05:06:23;;;;;;;14.50;7.50;;;;;;;-3.45;54.36;101650.30;117302;1183;23485;-76
2022/01/25 05:08:39;;;;;;;11.30;6.50;;;;;;;-3.46;54.44;101653.33;117099;1186;22780;-49
2022/01/25 05:11:14;;;;;;;12.10;6.40;;;;;;;-3.46;54.52;101651.38;117234;1182;21862;-75
2022/01/25 05:18:48;;;;;;;22.10;12.50;;;;;;;-3.48;54.46;101653.00;117242;1182;24252;-76
2022/01/25 05:24:04;;;;;;;13.70;8.50;;;;;;;-3.48;54.56;101653.17;117245;1185;21853;-76
2022/01/25 05:26:33;;;;;;;16.60;8.70;;;;;;;-3.47;54.55;101657.67;117019;1183;21845;-51
2022/01/25 05:29:01;;;;;;;21.10;10.70;;;;;;;-3.37;54.63;101655.77;117130;1184;23456;-49
2022/01/25 05:31:29;;;;;;;17.30;9.60;;;;;;;-3.27;54.71;101650.57;117239;1185;23529;-65
2022/01/25 05:33:57;;;;;;;14.30;8.80;;;;;;;-3.21;54.70;101650.09;117010;1184;23551;-48
2022/01/25 05:36:26;;;;;;;18.00;8.60;;;;;;;-3.18;54.62;101649.23;117268;1182;24211;-48
2022/01/25 05:38:58;;;;;;;16.90;7.70;;;;;;;-3.11;54.70;101650.53;117186;1185;24159;-64
2022/01/25 05:41:29;;;;;;;14.20;7.70;;;;;;;-3.05;54.69;101650.27;117299;1185;21856;-48
2022/01/25 05:47:08;;;;;;;21.20;8.20;;;;;;;-3.01;54.71;101652.23;117110;1179;23478;-68
2022/01/25 05:49:36;;;;;;;13.80;7.00;;;;;;;-2.96;54.71;101650.94;117030;1186;21873;-65
2022/01/25 05:52:05;;;;;;;26.90;9.60;;;;;;;-2.89;54.85;101648.52;117255;1180;21856;-62
2022/01/25 05:54:35;;;;;;;26.00;8.20;;;;;;;-2.85;54.79;101650.30;117143;1181;21866;-48
2022/01/25 05:57:03;;;;;;;20.90;7.70;;;;;;;-2.83;54.65;101650.06;117146;1182;23550;-63
2022/01/25 05:59:32;;;;;;;15.40;7.80;;;;;;;-2.88;54.49;101650.94;117157;1182;22884;-48
2022/01/25 06:02:01;;;;;;;17.20;7.10;;;;;;;-2.92;54.66;101645.05;117188;1186;23445;-62
2022/01/25 06:04:29;;;;;;;19.50;8.70;;;;;;;-2.92;54.66;101644.04;117205;1185;22820;-50
2022/01/25 06:06:57;;;;;;;14.60;7.40;;;;;;;-2.91;54.61;101646.66;117112;1179;21854;-68
2022/01/25 06:09:26;;;;;;;12.70;7.10;;;;;;;-2.94;54.57;101645.44;117166;1186;23693;-50
2022/01/25 06:11:54;;;;;;;14.60;7.60;;;;;;;-3.01;54.35;101647.07;117157;1186;21855;-70
2022/01/25 06:14:22;;;;;;;13.00;6.80;;;;;;;-3.08;54.39;101650.17;117257;1182;24083;-70
2022/01/25 06:16:51;;;;;;;20.70;6.90;;;;;;;-3.17;54.31;101647.91;117234;1186;22476;-50
2022/01/25 06:19:19;;;;;;;12.70;7.60;;;;;;;-3.24;54.33;101646.25;117188;1186;23584;-49
2022/01/25 06:21:48;;;;;;;16.30;7.80;;;;;;;-3.30;54.36;101645.06;117291;1182;24273;-49
2022/01/25 06:24:16;;;;;;;13.30;7.00;;;;;;;-3.31;54.55;101643.44;117203;1183;23473;-49
2022/01/25 06:26:45;;;;;;;14.60;6.70;;;;;;;-3.34;54.51;101642.27;117201;1183;21848;-67
2022/01/25 06:29:17;;;;;;;11.90;6.90;;;;;;;-3.33;54.48;101643.61;117144;1186;23544;-70
2022/01/25 06:31:47;;;;;;;12.40;7.30;;;;;;;-3.33;54.55;101638.70;117237;1186;22157;-49
2022/01/25 06:34:17;;;;;;;14.70;7.50;;;;;;;-3.34;54.54;101637.25;117211;1182;21899;-49
2022/01/25 06:36:47;;;;;;;14.40;7.10;;;;;;;-3.33;54.46;101636.43;117230;1182;21882;-70
2022/01/25 06:39:15;;;;;;;14.20;7.00;;;;;;;-3.34;54.48;101632.95;117148;1186;23577;-70
2022/01/25 06:41:44;;;;;;;18.80;7.50;;;;;;;-3.33;54.52;101629.08;117033;1184;24310;-49
2022/01/25 06:44:12;;;;;;;14.40;6.90;;;;;;;-3.33;54.44;101628.75;117211;1186;22926;-49
2022/01/25 06:46:40;;;;;;;14.70;7.30;;;;;;;-3.35;54.41;101626.73;117247;1186;23584;-49
2022/01/25 06:49:09;;;;;;;14.40;7.10;;;;;;;-3.37;54.60;101626.75;117209;1185;22658;-66
2022/01/25 06:51:37;;;;;;;13.00;7.30;;;;;;;-3.37;54.60;101623.67;117036;1186;24253;-67
2022/01/25 06:54:10;;;;;;;15.10;7.70;;;;;;;-3.38;54.54;101621.36;117483;1184;23223;-49
2022/01/25 06:56:38;;;;;;;18.60;8.10;;;;;;;-3.39;54.45;101620.76;117747;1182;21852;-51
2022/01/25 06:59:07;;;;;;;14.60;7.60;;;;;;;-3.38;54.60;101620.89;117477;1185;23489;-62
2022/01/25 07:01:36;;;;;;;18.90;7.50;;;;;;;-3.30;54.71;101618.60;117025;1184;22646;-48
2022/01/25 07:04:04;;;;;;;12.90;7.10;;;;;;;-3.15;54.75;101617.13;117052;1186;22802;-62
2022/01/25 07:06:32;;;;;;;16.00;7.70;;;;;;;-3.08;54.86;101616.54;117304;1182;24168;-63
2022/01/25 07:09:08;;;;;;;15.10;7.50;;;;;;;-3.03;54.81;101616.55;117001;1182;23461;-53
2022/01/25 07:11:37;;;;;;;;;;;;;;;-3.00;54.76;101610.70;117025;1184;22613;-61
2022/01/25 07:14:05;;;;;;;21.90;8.30;;;;;;;-2.95;54.76;101612.89;117353;1185;21856;-48
2022/01/25 07:16:33;;;;;;;19.30;8.00;;;;;;;-2.86;54.80;101612.42;117191;1185;23460;-48
2022/01/25 07:19:02;;;;;;;25.40;8.60;;;;;;;-2.83;54.76;101609.34;119390;1180;21793;-50
2022/01/25 07:21:30;;;;;;;21.60;10.50;;;;;;;-2.83;54.61;101606.41;119337;1185;22154;-61
2022/01/25 07:23:58;;;;;;;19.10;8.30;;;;;;;-2.82;54.76;101606.51;119390;1184;21844;-50
2022/01/25 07:26:26;;;;;;;17.90;8.20;;;;;;;-2.79;54.71;101607.38;119200;1186;21846;-50
2022/01/25 07:28:54;;;;;;;18.50;7.80;;;;;;;-2.76;54.72;101604.97;119228;1186;21771;-52
2022/01/25 07:31:22;;;;;;;13.90;7.50;;;;;;;-2.74;54.62;101609.56;119326;1185;21810;-63
2022/01/25 07:34:00;;;;;;;13.50;7.50;;;;;;;-2.67;54.77;101608.58;117852;1185;21854;-70
2022/01/25 07:36:30;;;;;;;15.10;8.30;;;;;;;-2.62;54.80;101609.75;117291;1176;21874;-68
2022/01/25 07:39:10;;;;;;;13.90;7.50;;;;;;;-2.61;54.68;101612.23;117227;1185;23463;-50
2022/01/25 07:41:44;;;;;;;20.40;11.00;;;;;;;-2.63;54.58;101612.77;117271;1186;23452;-50
2022/01/25 07:44:17;;;;;;;16.60;10.10;;;;;;;-2.68;54.63;101613.16;117002;1187;23476;-71
2022/01/25 07:46:49;;;;;;;16.20;9.40;;;;;;;-2.71;54.62;101620.06;117094;1188;23453;-68
2022/01/25 07:49:22;;;;;;;20.10;12.20;;;;;;;-2.70;54.62;101622.16;117201;1183;21878;-70
2022/01/25 07:52:00;;;;;;;20.70;11.30;;;;;;;-2.68;54.47;101625.23;117143;1179;21889;-69
2022/01/25 07:54:29;;;;;;;22.20;13.50;;;;;;;-2.68;54.49;101627.61;117850;1178;23552;-67
2022/01/25 07:56:57;;;;;;;33.80;16.70;;;;;;;-2.64;54.58;101629.60;117197;1176;21917;-56
2022/01/25 07:59:26;;;;;;;35.90;18.60;;;;;;;-2.55;54.69;101630.46;117271;1182;23503;-65
2022/01/25 08:01:54;;;;;;;25.30;13.50;;;;;;;-2.46;54.71;101632.74;117240;1185;23477;-63
2022/01/25 08:04:29;;;;;;;22.40;10.30;;;;;;;-2.33;54.80;101629.88;117264;1186;21855;-51
2022/01/25 08:07:14;;;;;;;13.10;7.80;;;;;;;-2.18;54.93;101622.84;117271;1185;23485;-50
2022/01/25 08:09:43;;;;;;;16.10;7.90;;;;;;;-2.12;54.80;101625.09;117334;1182;23450;-50
2022/01/25 08:12:13;;;;;;;16.00;8.30;;;;;;;-2.12;54.72;101628.05;117236;1186;23453;-50
2022/01/25 08:14:49;;;;;;;17.10;9.90;;;;;;;-2.18;54.53;101626.80;117293;1179;22938;-68
2022/01/25 08:17:19;;;;;;;16.70;9.70;;;;;;;-2.23;54.53;101625.50;117198;1185;21883;-70
2022/01/25 08:20:03;;;;;;;19.60;11.80;;;;;;;-2.30;54.53;101629.58;117002;1185;23016;-70
2022/01/25 08:22:35;;;;;;;16.30;7.90;;;;;;;-2.36;54.50;101633.13;117307;1183;22645;-69
2022/01/25 08:25:12;;;;;;;14.50;8.00;;;;;;;-2.43;54.47;101633.75;117135;1186;22043;-70
2022/01/25 08:27:46;;;;;;;15.40;7.90;;;;;;;-2.45;54.48;101638.64;117165;1185;21858;-55
2022/01/25 08:30:18;;;;;;;16.00;8.90;;;;;;;-2.43;54.66;101639.42;117320;1185;23656;-50
2022/01/25 08:32:49;;;;;;;27.00;13.50;;;;;;;-2.41;54.65;101642.00;117205;1176;22651;-70
2022/01/25 08:35:29;;;;;;;33.60;15.80;;;;;;;-2.40;54.57;101637.52;117084;1183;23454;-53
2022/01/25 08:38:01;;;;;;;21.40;11.20;;;;;;;-2.40;54.66;101638.57;117218;1183;23002;-50
2022/01/25 08:40:37;;;;;;;21.00;13.20;;;;;;;-2.37;54.57;101636.38;117212;1179;24226;-70
2022/01/25 08:43:15;;;;;;;15.20;8.80;;;;;;;-2.30;54.67;101624.73;117015;1182;23557;-50
2022/01/25 08:45:48;;;;;;;16.10;9.80;;;;;;;-2.28;54.63;101630.86;116993;1187;23454;-69
2022/01/25 08:48:25;;;;;;;19.30;11.70;;;;;;;-2.24;54.77;101625.63;117294;1186;21899;-69
2022/01/25 08:51:07;;;;;;;15.30;8.90;;;;;;;-2.17;54.92;101625.17;117230;1180;23531;-50
2022/01/25 08:53:51;;;;;;;17.20;10.20;;;;;;;-2.10;54.93;101626.48;117212;1186;21864;-50
2022/01/25 08:56:26;;;;;;;94.60;36.90;;;;;;;-2.05;54.71;101625.67;117351;1182;23464;-50
2022/01/25 08:59:05;;;;;;;72.10;33.50;;;;;;;-2.03;54.82;101621.86;117295;1185;21845;-50
2022/01/25 09:01:35;;;;;;;20.40;9.50;;;;;;;-2.02;54.76;101616.92;117219;1185;23692;-50
2022/01/25 09:04:04;;;;;;;14.10;8.90;;;;;;;-2.05;54.56;101613.33;117214;1183;21862;-50
2022/01/25 09:06:36;;;;;;;21.00;10.70;;;;;;;-2.07;54.60;101613.70;117171;1185;23484;-69
2022/01/25 09:09:09;;;;;;;17.10;10.20;;;;;;;-2.06;54.64;101611.19;117176;1186;21964;-49
2022/01/25 09:11:39;;;;;;;17.20;8.70;;;;;;;-2.04;54.75;101609.77;117210;1186;22920;-49
2022/01/25 09:14:25;;;;;;;19.10;11.30;;;;;;;-2.03;54.81;101607.05;117346;1185;24143;-50
2022/01/25 09:17:00;;;;;;;18.30;10.80;;;;;;;-2.01;54.69;101597.91;117247;1182;23478;-50
2022/01/25 09:19:31;;;;;;;18.30;11.00;;;;;;;-1.98;54.75;101595.49;117232;1177;21854;-50
2022/01/25 09:22:00;;;;;;;18.50;10.70;;;;;;;-1.94;54.82;101590.73;117242;1177;21899;-51
2022/01/25 09:24:28;;;;;;;15.20;8.90;;;;;;;-1.88;54.95;101585.40;117058;1186;21849;-74
2022/01/25 09:26:57;;;;;;;15.00;8.10;;;;;;;-1.88;54.78;101580.05;117018;1187;23521;-75
2022/01/25 09:29:25;;;;;;;15.30;7.70;;;;;;;-1.91;54.83;101581.23;117249;1182;23455;-76
2022/01/25 09:31:54;;;;;;;15.70;8.20;;;;;;;-1.93;54.66;101578.41;117321;1185;23468;-61
2022/01/25 09:34:25;;;;;;;14.30;8.20;;;;;;;-1.93;54.68;101576.64;117238;1176;21981;-50
2022/01/25 09:36:53;;;;;;;13.10;7.50;;;;;;;-1.90;54.74;101575.45;117217;1185;21864;-79
2022/01/25 09:39:22;;;;;;;14.50;8.40;;;;;;;-1.87;54.78;101575.16;117306;1182;23468;-50
2022/01/25 09:41:50;;;;;;;15.60;8.50;;;;;;;-1.82;54.73;101574.73;117260;1186;21846;-75
2022/01/25 09:44:19;;;;;;;15.80;8.80;;;;;;;-1.79;54.78;101574.71;117319;1185;21865;-77
2022/01/25 09:46:53;;;;;;;16.20;8.10;;;;;;;-1.72;54.80;101575.11;117379;1185;21939;-50
2022/01/25 09:49:22;;;;;;;16.80;8.60;;;;;;;-1.63;54.99;101570.79;117378;1185;23488;-50
2022/01/25 09:51:50;;;;;;;14.70;7.80;;;;;;;-1.57;54.98;101570.30;117451;1185;21860;-50
2022/01/25 09:54:19;;;;;;;12.70;7.20;;;;;;;-1.50;54.92;101563.42;117136;1180;23491;-50
2022/01/25 09:56:47;;;;;;;12.30;7.70;;;;;;;-1.46;54.87;101561.73;117207;1179;22324;-77
2022/01/25 09:59:16;;;;;;;16.70;8.50;;;;;;;-1.44;54.99;101556.70;117275;1183;24172;-77
2022/01/25 10:01:46;;;;;;;16.20;9.30;;;;;;;-1.44;54.70;101558.42;117204;1182;23473;-72
2022/01/25 10:04:27;;;;;;;16.60;9.10;;;;;;;-1.42;54.90;101561.11;117068;1187;22929;-50
2022/01/25 10:07:04;;;;;;;19.10;9.00;;;;;;;-1.39;54.86;101550.45;117188;1179;21848;-69
2022/01/25 10:10:01;;;;;;;20.90;12.00;;;;;;;-1.32;54.68;101549.27;117149;1186;22547;-73
2022/01/25 10:12:31;;;;;;;24.90;13.20;;;;;;;-1.26;54.90;101548.58;117224;1185;23478;-51
2022/01/25 10:15:00;;;;;;;24.00;12.30;;;;;;;-1.25;54.75;101550.18;117237;1185;23506;-50
2022/01/25 10:17:33;;;;;;;39.00;18.00;;;;;;;-1.23;54.99;101546.67;117192;1186;21871;-50
2022/01/25 10:20:05;;;;;;;28.30;16.70;;;;;;;-1.16;54.90;101546.35;117223;1186;21851;-70
2022/01/25 10:22:46;;;;;;;38.90;20.00;;;;;;;-1.17;54.69;101541.83;117251;1183;21879;-51
2022/01/25 10:25:28;;;;;;;36.00;19.40;;;;;;;-1.18;54.98;101537.45;117241;1186;21856;-49
2022/01/25 10:28:10;;;;;;;26.20;13.70;;;;;;;-1.16;54.97;101537.21;117064;1189;21855;-50
2022/01/25 10:30:50;;;;;;;26.10;13.80;;;;;;;-1.05;54.93;101531.41;117088;1180;24715;-53
2022/01/25 10:33:34;;;;;;;27.40;14.60;;;;;;;-0.87;55.15;101527.20;117086;1179;21947;-70
2022/01/25 10:36:14;;;;;;;22.10;10.40;;;;;;;-0.75;55.06;101524.89;117113;1189;21855;-70
2022/01/25 10:38:44;;;;;;;;;;;;;;;-0.77;54.93;101522.54;117087;1186;23515;-70
2022/01/25 10:41:14;;;;;;;20.60;11.30;;;;;;;-0.82;54.75;101517.13;117102;1186;21846;-70
2022/01/25 10:43:43;;;;;;;;;;;;;;;-0.89;54.65;101514.15;117143;1186;23638;-50
2022/01/25 10:46:18;;;;;;;13.10;7.30;;;;;;;-0.90;54.72;101512.23;117102;1184;22920;-50
2022/01/25 10:48:57;;;;;;;19.40;10.20;;;;;;;-0.89;54.81;101506.92;117168;1185;21857;-70
2022/01/25 10:51:40;;;;;;;13.20;6.80;;;;;;;-0.87;54.82;101507.38;117087;1188;21858;-51
2022/01/25 10:54:16;;;;;;;14.90;8.40;;;;;;;-0.83;54.82;101503.59;117170;1186;21856;-68
2022/01/25 10:56:48;;;;;;;13.80;7.40;;;;;;;-0.83;54.89;101501.71;117176;1181;22624;-70
2022/01/25 10:59:22;;;;;;;13.60;7.00;;;;;;;-0.81;54.83;101500.45;117121;1185;22938;-71
2022/01/25 11:01:59;;;;;;;13.90;7.70;;;;;;;-0.79;54.97;101494.17;117123;1182;23581;-51
2022/01/25 11:04:34;;;;;;;14.30;8.10;;;;;;;-0.78;54.79;101493.05;117405;1185;21845;-51
2022/01/25 11:07:05;;;;;;;19.20;9.50;;;;;;;-0.78;54.66;101488.22;117360;1183;21851;-70
2022/01/25 11:09:37;;;;;;;;;;;;;;;-0.78;54.74;101487.69;117310;1185;21880;-70
2022/01/25 11:12:08;;;;;;;18.30;9.70;;;;;;;-0.80;54.69;101483.29;117206;1183;22990;-51
2022/01/25 11:14:57;;;;;;;17.90;9.80;;;;;;;-0.82;54.75;101484.52;117185;1179;23487;-63
2022/01/25 11:17:29;;;;;;;18.00;9.10;;;;;;;-0.80;54.74;101479.30;117185;1186;23552;-50
2022/01/25 11:19:59;;;;;;;15.90;9.30;;;;;;;-0.73;54.79;101468.27;117368;1184;22926;-50
2022/01/25 11:22:28;;;;;;;17.40;9.40;;;;;;;-0.70;54.94;101468.26;117189;1186;21987;-70
2022/01/25 11:25:00;;;;;;;16.80;9.10;;;;;;;-0.67;54.98;101460.96;117270;1181;21848;-50
2022/01/25 11:27:29;;;;;;;18.00;8.90;;;;;;;-0.67;54.89;101461.38;117171;1186;21874;-70
2022/01/25 11:30:01;;;;;;;17.40;9.00;;;;;;;-0.63;54.69;101462.22;117181;1186;22752;-52
2022/01/25 11:32:33;;;;;;;14.80;8.30;;;;;;;-0.59;54.86;101466.03;117083;1183;23484;-70
2022/01/25 11:35:04;;;;;;;14.40;8.40;;;;;;;-0.54;54.79;101469.05;117321;1185;21868;-69
2022/01/25 11:37:38;;;;;;;14.00;8.50;;;;;;;-0.51;54.79;101462.13;117215;1176;21856;-69
2022/01/25 11:40:30;;;;;;;13.50;7.60;;;;;;;-0.54;54.79;101460.95;117097;1183;23653;-69
2022/01/25 11:43:00;;;;;;;15.30;8.80;;;;;;;-0.58;54.85;101459.58;117145;1180;22920;-50
2022/01/25 11:45:39;;;;;;;15.50;8.00;;;;;;;-0.61;54.63;101454.41;117081;1182;22645;-69
2022/01/25 11:48:07;;;;;;;14.10;7.80;;;;;;;-0.62;54.80;101449.88;117099;1186;21914;-52
2022/01/25 11:50:39;;;;;;;17.20;7.70;;;;;;;-0.62;54.80;101441.45;117128;1186;23475;-69
2022/01/25 11:53:09;;;;;;;19.50;9.90;;;;;;;-0.60;54.77;101438.95;117144;1182;22068;-55
2022/01/25 11:55:39;;;;;;;25.30;12.10;;;;;;;-0.60;54.77;101441.37;117140;1183;23581;-69
2022/01/25 11:58:12;;;;;;;20.60;11.00;;;;;;;-0.62;54.74;101447.80;117056;1186;22940;-70
2022/01/25 12:00:49;;;;;;;16.40;8.50;;;;;;;-0.63;54.63;101450.88;117184;1186;21853;-61
2022/01/25 12:03:23;;;;;;;13.30;7.60;;;;;;;-0.59;54.56;101452.77;117154;1186;22332;-70
2022/01/25 12:06:00;;;;;;;11.40;6.80;;;;;;;-0.53;54.53;101444.98;117125;1182;22632;-51
2022/01/25 12:08:52;;;;;;;13.80;7.20;;;;;;;-0.52;54.83;101441.38;117107;1186;22904;-70
2022/01/25 12:11:52;;;;;;;13.00;7.30;;;;;;;-0.54;54.68;101440.06;117093;1185;21861;-68
2022/01/25 12:14:28;;;;;;;;;;;;;;;-0.55;54.60;101436.80;117060;1183;22608;-68
2022/01/25 12:17:02;;;;;;;13.50;7.40;;;;;;;-0.51;54.60;101439.06;117142;1185;22931;-69
2022/01/25 12:19:52;;;;;;;20.80;9.20;;;;;;;-0.57;54.57;101435.98;117101;1186;24303;-51
2022/01/25 12:22:33;;;;;;;27.50;14.30;;;;;;;-0.64;54.27;101437.70;117250;1182;22956;-69
2022/01/25 12:25:57;;;;;;;;;;;;;;;-0.79;54.46;101436.46;117389;1182;22898;-68
2022/01/25 12:28:30;;;;;;;15.30;8.60;;;;;;;-0.90;54.50;101442.45;117112;1186;23467;-70
2022/01/25 12:30:59;;;;;;;72.90;24.30;;;;;;;-0.93;54.50;101442.95;117207;1182;23477;-50
2022/01/25 12:33:29;;;;;;;35.20;14.90;;;;;;;-0.97;54.44;101443.96;117173;1182;21859;-50
2022/01/25 12:36:01;;;;;;;25.40;12.10;;;;;;;-1.04;54.36;101445.83;117130;1186;23538;-50
2022/01/25 12:38:30;;;;;;;14.90;8.30;;;;;;;-1.08;54.52;101444.28;117165;1182;23457;-71
2022/01/25 12:41:08;;;;;;;14.60;9.50;;;;;;;-1.10;54.42;101446.90;117306;1185;22896;-70
2022/01/25 12:43:50;;;;;;;71.10;29.40;;;;;;;-1.07;54.52;101451.53;117246;1176;21861;-70
2022/01/25 12:46:24;;;;;;;83.30;34.20;;;;;;;-1.01;54.50;101451.16;117140;1185;23738;-50
2022/01/25 12:49:00;;;;;;;40.00;20.30;;;;;;;-0.94;54.66;101452.59;117172;1186;24230;-51
2022/01/25 12:51:31;;;;;;;26.60;13.90;;;;;;;-0.89;54.75;101453.67;117328;1185;22705;-51
2022/01/25 12:54:01;;;;;;;20.70;10.50;;;;;;;-0.84;54.75;101449.27;117166;1176;23454;-71
2022/01/25 12:56:43;;;;;;;16.30;9.10;;;;;;;-0.82;54.85;101446.61;117134;1182;22658;-70
2022/01/25 12:59:19;;;;;;;20.00;8.50;;;;;;;-0.84;54.49;101444.45;117308;1185;23432;-63
2022/01/25 13:01:47;;;;;;;18.20;9.80;;;;;;;-0.89;54.57;101445.92;117262;1183;21868;-70
2022/01/25 13:04:15;;;;;;;22.70;11.10;;;;;;;-0.91;54.30;101445.99;117331;1183;21916;-70
2022/01/25 13:06:48;;;;;;;22.20;11.60;;;;;;;-0.94;54.51;101446.88;117353;1185;21870;-50
2022/01/25 13:09:38;;;;;;;19.30;10.00;;;;;;;-0.95;54.39;101448.92;117169;1180;21864;-55
2022/01/25 13:17:11;;;;;;;20.00;8.60;;;;;;;-0.96;54.53;101447.63;117234;1183;22921;-66
2022/01/25 13:19:51;;;;;;;19.80;9.40;;;;;;;-0.95;54.59;101448.20;117167;1186;21872;-50
2022/01/25 13:22:21;;;;;;;14.10;8.20;;;;;;;-0.93;54.47;101444.02;117186;1185;23266;-51
2022/01/25 13:25:13;;;;;;;;;;;;;;;-0.90;54.68;101443.15;117154;1183;21919;-65
2022/01/25 13:27:50;;;;;;;15.40;7.60;;;;;;;-0.89;54.66;101438.70;117168;1186;21871;-64